Aviation Digital Data Service (ADDS)

Output produced by TAFs form (1935 UTC 16 January 2018)
found at http://www.aviationweather.gov/adds/tafs/
 
METAR text: RJNY 161909Z 28003KT 9999 -SHRA FEW020 SCT030 BKN050 10/09 Q1016 RMK 1CU020 3CU030 6SC050 A3001
Conditions at: RJNY (SHIZUHAMA (JASDF, JP) observed 1909 UTC 16 January 2018
Temperature: 10.0°C (50°F)
Dewpoint: 9.0°C (48°F) [RH = 93%]
Pressure (altimeter): 30.00 inches Hg (1016.0 mb)
Winds: from the W (280 degrees) at 3 MPH (3 knots; 1.6 m/s)
Visibility: 6 or more miles (10+ km)
Ceiling: 5000 feet AGL
Clouds: few clouds at 2000 feet AGL
scattered clouds at 3000 feet AGL
broken clouds at 5000 feet AGL
Weather: -SHRA  (light rain showers)